Time;durP1;ratioP1;P1;durP2;ratioP2;P2;SDS_P1;SDS_P2;PMS_P1;PMS_P2;Temp;Humidity;BMP_temperature;BMP_pressure;BME280_temperature;BME280_humidity;BME280_pressure;Samples;Min_cycle;Max_cycle;Signal;HPM_P1;HPM_P2
2024/01/04 00:00:16;;;;;;;15.55;5.13;;;;;;;8.48;100.00;99345.50;5083884;27;20074;-74
2024/01/04 00:02:43;;;;;;;12.88;4.93;;;;;;;8.52;100.00;99352.25;5104520;27;20090;-75
2024/01/04 00:05:09;;;;;;;13.82;4.82;;;;;;;8.50;100.00;99360.34;5076979;28;20032;-74
2024/01/04 00:07:34;;;;;;;11.07;4.03;;;;;;;8.45;100.00;99356.38;5091675;28;20820;-74
2024/01/04 00:10:00;;;;;;;11.95;3.78;;;;;;;8.56;100.00;99359.03;5077782;28;20036;-74
2024/01/04 00:12:25;;;;;;;10.82;4.25;;;;;;;8.54;100.00;99361.81;5081272;27;20519;-73
2024/01/04 00:14:51;;;;;;;9.73;5.38;;;;;;;8.52;100.00;99371.69;5101247;27;20865;-74
2024/01/04 00:17:17;;;;;;;10.55;4.57;;;;;;;8.61;100.00;99372.78;5079988;28;20044;-74
2024/01/04 00:19:43;;;;;;;18.23;6.45;;;;;;;8.62;100.00;99373.63;5097512;27;20040;-74
2024/01/04 00:22:08;;;;;;;19.58;6.90;;;;;;;8.68;100.00;99373.97;5081287;27;20036;-74
2024/01/04 00:24:34;;;;;;;14.07;7.50;;;;;;;8.70;100.00;99369.41;5099928;27;20040;-74
2024/01/04 00:26:59;;;;;;;16.58;7.82;;;;;;;8.75;100.00;99377.03;5097285;27;20052;-74
2024/01/04 00:29:25;;;;;;;18.40;9.32;;;;;;;8.72;100.00;99385.22;5096944;27;20050;-74
2024/01/04 00:31:51;;;;;;;20.42;10.65;;;;;;;8.75;100.00;99403.59;5103247;27;20039;-73
2024/01/04 00:34:16;;;;;;;23.05;11.05;;;;;;;8.70;100.00;99405.78;5096276;27;20037;-74
2024/01/04 00:36:41;;;;;;;25.48;13.63;;;;;;;8.79;100.00;99418.34;5095270;27;20039;-74
2024/01/04 00:39:07;;;;;;;25.85;12.95;;;;;;;8.69;100.00;99434.16;5097731;27;20300;-74
2024/01/04 00:41:33;;;;;;;31.05;13.80;;;;;;;8.68;100.00;99443.06;5091775;27;20561;-74
2024/01/04 00:43:59;;;;;;;32.13;12.10;;;;;;;8.68;100.00;99455.50;5080219;27;20047;-74
2024/01/04 00:46:24;;;;;;;22.83;11.38;;;;;;;8.62;100.00;99467.47;5094074;27;20043;-74
2024/01/04 00:48:50;;;;;;;15.20;7.65;;;;;;;8.51;100.00;99465.66;5101591;27;20097;-74
2024/01/04 00:51:15;;;;;;;14.32;6.88;;;;;;;8.57;100.00;99459.00;5098212;27;20038;-73
2024/01/04 00:53:41;;;;;;;13.07;6.68;;;;;;;8.56;100.00;99459.97;5079596;28;20051;-74
2024/01/04 00:56:07;;;;;;;14.55;5.97;;;;;;;8.62;100.00;99466.63;5080055;27;20043;-74
2024/01/04 00:58:32;;;;;;;13.30;5.85;;;;;;;8.54;100.00;99468.06;5083604;28;20044;-74
2024/01/04 01:00:58;;;;;;;11.85;5.32;;;;;;;8.53;100.00;99473.50;5097259;27;20040;-74
2024/01/04 01:03:23;;;;;;;16.58;5.72;;;;;;;8.41;100.00;99485.91;5092477;27;23436;-74
2024/01/04 01:05:52;;;;;;;14.35;5.80;;;;;;;8.39;100.00;99492.31;5097214;27;20051;-74
2024/01/04 01:08:18;;;;;;;16.08;6.20;;;;;;;8.41;100.00;99499.19;5066278;27;20043;-74
2024/01/04 01:10:43;;;;;;;14.27;6.03;;;;;;;8.51;100.00;99502.84;5075002;28;20040;-73
2024/01/04 01:13:09;;;;;;;16.90;6.15;;;;;;;8.50;100.00;99506.47;5097897;27;20032;-74
2024/01/04 01:15:34;;;;;;;12.40;6.15;;;;;;;8.53;100.00;99506.25;5099686;27;20028;-74
2024/01/04 01:18:03;;;;;;;14.73;6.43;;;;;;;8.52;100.00;99515.16;5079923;27;20047;-74
2024/01/04 01:20:28;;;;;;;16.98;7.15;;;;;;;8.56;100.00;99518.44;5086299;27;20036;-74
2024/01/04 01:22:54;;;;;;;16.52;7.47;;;;;;;8.49;100.00;99526.03;5082289;27;20036;-75
2024/01/04 01:25:19;;;;;;;16.13;6.47;;;;;;;8.44;100.00;99536.16;5096956;27;20071;-74
2024/01/04 01:27:44;;;;;;;17.20;6.63;;;;;;;8.50;100.00;99538.34;5096856;27;20063;-74
2024/01/04 01:30:10;;;;;;;12.93;5.35;;;;;;;8.38;100.00;99538.41;5100975;27;20035;-74
2024/01/04 01:32:35;;;;;;;13.75;4.63;;;;;;;8.41;100.00;99538.19;5103807;27;20036;-74
2024/01/04 01:35:01;;;;;;;7.40;4.35;;;;;;;8.38;100.00;99543.72;5066865;27;20035;-75
2024/01/04 01:37:26;;;;;;;13.13;4.53;;;;;;;8.40;100.00;99555.09;5089237;28;20055;-74
2024/01/04 01:39:52;;;;;;;13.68;4.75;;;;;;;8.42;100.00;99559.31;5101046;27;20040;-74
2024/01/04 01:42:20;;;;;;;13.45;5.53;;;;;;;8.45;100.00;99568.88;5101861;27;20036;-72
2024/01/04 01:44:47;;;;;;;11.93;5.20;;;;;;;8.52;100.00;99578.06;5110748;27;20032;-75
2024/01/04 01:47:12;;;;;;;16.90;6.28;;;;;;;8.46;100.00;99582.03;5085764;28;20117;-74
2024/01/04 01:49:38;;;;;;;13.32;5.75;;;;;;;8.44;100.00;99591.09;5103265;27;20082;-74
2024/01/04 01:52:04;;;;;;;12.90;6.03;;;;;;;8.42;100.00;99579.72;5099129;27;20117;-74
2024/01/04 01:54:30;;;;;;;21.48;7.32;;;;;;;8.35;100.00;99587.28;5101926;27;20040;-72
2024/01/04 01:56:56;;;;;;;11.50;7.00;;;;;;;8.30;100.00;99595.59;5097485;27;20042;-72
2024/01/04 01:59:22;;;;;;;17.15;7.60;;;;;;;8.36;100.00;99599.63;5068169;27;20039;-72
2024/01/04 02:01:47;;;;;;;14.63;7.38;;;;;;;8.44;100.00;99601.72;5073078;27;20557;-72
2024/01/04 02:04:13;;;;;;;19.98;8.13;;;;;;;8.52;100.00;99608.13;5099959;27;20054;-74
2024/01/04 02:06:38;;;;;;;16.15;7.13;;;;;;;8.48;100.00;99604.03;5107972;27;20106;-72
2024/01/04 02:09:04;;;;;;;19.92;7.82;;;;;;;8.54;100.00;99613.34;5084742;28;20040;-72
2024/01/04 02:11:29;;;;;;;17.55;7.60;;;;;;;8.53;100.00;99615.19;5104428;28;20039;-73
2024/01/04 02:13:55;;;;;;;13.85;7.30;;;;;;;8.51;100.00;99616.22;5091916;28;20039;-73
2024/01/04 02:16:21;;;;;;;17.20;7.25;;;;;;;8.47;100.00;99618.25;5101243;27;20227;-75
2024/01/04 02:18:47;;;;;;;26.33;7.88;;;;;;;8.59;100.00;99626.31;5096210;27;20031;-74
2024/01/04 02:21:12;;;;;;;18.90;7.30;;;;;;;8.51;100.00;99642.81;5100341;27;20040;-73
2024/01/04 02:23:38;;;;;;;17.63;7.35;;;;;;;8.50;100.00;99641.13;5116402;27;20113;-74
2024/01/04 02:26:03;;;;;;;16.75;6.15;;;;;;;8.54;100.00;99638.13;5124586;27;20028;-74
2024/01/04 02:28:29;;;;;;;20.73;6.93;;;;;;;8.41;100.00;99637.31;5115444;28;20373;-74
2024/01/04 02:30:54;;;;;;;15.80;6.40;;;;;;;8.41;100.00;99655.91;5130672;27;20036;-74
2024/01/04 02:33:20;;;;;;;14.27;6.65;;;;;;;8.34;100.00;99645.84;5121709;27;23371;-74
2024/01/04 02:35:45;;;;;;;11.25;6.30;;;;;;;8.30;100.00;99659.31;5114802;27;20517;-74
2024/01/04 02:38:11;;;;;;;14.82;5.53;;;;;;;8.28;100.00;99658.59;5106046;28;20044;-74
2024/01/04 02:40:36;;;;;;;18.48;6.30;;;;;;;8.43;100.00;99667.25;5100635;28;20047;-74
2024/01/04 02:43:02;;;;;;;17.85;6.65;;;;;;;8.46;100.00;99664.38;5110041;28;20035;-73
2024/01/04 02:45:28;;;;;;;16.50;5.97;;;;;;;8.56;100.00;99664.56;5115706;28;20082;-74
2024/01/04 02:47:53;;;;;;;19.75;6.45;;;;;;;8.65;100.00;99679.00;5111089;27;20043;-74
2024/01/04 02:50:19;;;;;;;13.52;5.78;;;;;;;8.58;100.00;99683.88;5116415;27;20859;-74
2024/01/04 02:52:45;;;;;;;18.13;5.85;;;;;;;8.62;100.00;99685.34;5110589;27;20024;-75
2024/01/04 02:55:10;;;;;;;17.27;6.38;;;;;;;8.53;100.00;99689.56;5106471;28;20891;-74
2024/01/04 02:57:36;;;;;;;13.10;5.55;;;;;;;8.59;100.00;99690.91;5089544;27;20032;-74
2024/01/04 03:00:01;;;;;;;19.77;5.93;;;;;;;8.57;100.00;99698.97;5106682;27;20093;-74
2024/01/04 03:02:27;;;;;;;16.30;6.25;;;;;;;8.61;100.00;99702.28;5098705;28;20032;-74
2024/01/04 03:04:52;;;;;;;14.73;5.28;;;;;;;8.57;100.00;99700.78;5098474;28;20048;-74
2024/01/04 03:07:18;;;;;;;17.33;5.88;;;;;;;8.65;100.00;99708.22;5087776;27;20873;-74
2024/01/04 03:09:44;;;;;;;23.08;7.05;;;;;;;8.64;100.00;99718.00;5099764;27;20036;-74
2024/01/04 03:12:09;;;;;;;14.60;5.50;;;;;;;8.60;100.00;99713.88;5112033;27;20036;-74
2024/01/04 03:14:35;;;;;;;16.98;5.53;;;;;;;8.58;100.00;99721.09;5102218;27;20052;-74
2024/01/04 03:17:00;;;;;;;23.42;6.30;;;;;;;8.50;100.00;99710.19;5101206;27;20043;-74
2024/01/04 03:19:26;;;;;;;20.17;6.20;;;;;;;8.53;100.00;99716.13;5095261;27;20532;-74
2024/01/04 03:21:51;;;;;;;17.38;6.70;;;;;;;8.44;100.00;99724.78;5093250;27;20043;-74
2024/01/04 03:24:17;;;;;;;16.55;6.60;;;;;;;8.46;100.00;99730.81;5092006;27;20047;-74
2024/01/04 03:26:42;;;;;;;17.98;7.85;;;;;;;8.49;100.00;99735.91;5089419;27;20095;-74
2024/01/04 03:29:08;;;;;;;20.15;6.53;;;;;;;8.44;100.00;99735.41;5098077;27;20036;-74
2024/01/04 03:31:33;;;;;;;16.02;6.38;;;;;;;8.43;100.00;99741.63;5080160;27;20037;-73
2024/01/04 03:33:59;;;;;;;19.95;6.97;;;;;;;8.42;100.00;99739.94;5091937;27;20040;-74
2024/01/04 03:36:24;;;;;;;22.23;6.25;;;;;;;8.47;100.00;99744.94;5084858;28;20024;-74
2024/01/04 03:38:50;;;;;;;17.90;7.22;;;;;;;8.44;100.00;99740.72;5092890;27;20048;-74
2024/01/04 03:41:16;;;;;;;19.95;7.07;;;;;;;8.46;100.00;99740.59;5089236;27;20040;-74
2024/01/04 03:43:41;;;;;;;17.40;6.90;;;;;;;8.50;100.00;99745.56;5069612;28;20044;-74
2024/01/04 03:46:09;;;;;;;18.38;6.85;;;;;;;8.37;100.00;99743.91;5083814;28;20032;-74
2024/01/04 03:48:34;;;;;;;21.60;7.15;;;;;;;8.44;100.00;99755.81;5077849;28;20044;-74
2024/01/04 03:51:00;;;;;;;21.52;6.47;;;;;;;8.46;100.00;99748.56;5092249;27;20787;-74
2024/01/04 03:53:26;;;;;;;16.85;6.55;;;;;;;8.45;100.00;99763.66;5088334;27;20036;-74
2024/01/04 03:55:51;;;;;;;28.15;7.97;;;;;;;8.45;100.00;99755.69;5093322;27;20382;-74
2024/01/04 03:58:17;;;;;;;21.45;6.72;;;;;;;8.48;100.00;99759.91;5084192;27;20050;-74
2024/01/04 04:00:42;;;;;;;30.90;7.45;;;;;;;8.56;100.00;99769.03;5084725;28;20048;-74
2024/01/04 04:03:08;;;;;;;19.05;6.88;;;;;;;8.58;100.00;99760.94;5089854;27;20040;-74
2024/01/04 04:05:34;;;;;;;18.13;6.35;;;;;;;8.47;100.00;99766.19;5094793;27;20035;-74
2024/01/04 04:07:59;;;;;;;23.63;6.18;;;;;;;8.46;100.00;99777.78;5097782;27;20864;-74
2024/01/04 04:10:25;;;;;;;14.85;7.38;;;;;;;8.52;100.00;99787.97;5077407;28;20040;-74
2024/01/04 04:12:51;;;;;;;17.80;6.20;;;;;;;8.56;100.00;99786.78;5097558;27;20046;-74
2024/01/04 04:15:17;;;;;;;11.80;5.63;;;;;;;8.61;100.00;99791.78;5088414;27;20046;-74
2024/01/04 04:17:42;;;;;;;14.57;5.75;;;;;;;8.57;100.00;99799.09;5098931;27;20044;-74
2024/01/04 04:20:08;;;;;;;18.75;6.35;;;;;;;8.48;100.00;99790.00;5096219;27;20043;-74
2024/01/04 04:22:34;;;;;;;20.90;6.95;;;;;;;8.50;100.00;99803.19;5098981;27;20039;-73
2024/01/04 04:24:59;;;;;;;17.08;5.15;;;;;;;8.53;100.00;99806.47;5091252;28;20036;-74
2024/01/04 04:27:25;;;;;;;12.10;4.65;;;;;;;8.54;100.00;99808.16;5090547;27;20048;-74
2024/01/04 04:29:51;;;;;;;23.30;6.50;;;;;;;8.48;100.00;99807.72;5099586;27;20043;-74
2024/01/04 04:32:17;;;;;;;14.20;6.28;;;;;;;8.53;100.00;99817.09;5100644;27;20038;-74
2024/01/04 04:34:42;;;;;;;14.02;6.95;;;;;;;8.49;100.00;99812.13;5097277;27;20151;-74
2024/01/04 04:37:08;;;;;;;21.60;6.70;;;;;;;8.56;100.00;99818.66;5096205;27;20039;-74
2024/01/04 04:39:33;;;;;;;18.83;6.78;;;;;;;8.44;100.00;99824.88;5073526;27;20040;-74
2024/01/04 04:41:59;;;;;;;27.92;7.45;;;;;;;8.47;100.00;99824.63;5097003;27;20040;-74
2024/01/04 04:44:25;;;;;;;21.85;6.38;;;;;;;8.41;100.00;99820.63;5098217;27;20040;-74
2024/01/04 04:46:50;;;;;;;19.40;6.82;;;;;;;8.39;100.00;99829.66;5094842;27;20048;-74
2024/01/04 04:49:16;;;;;;;20.80;6.60;;;;;;;8.42;100.00;99832.94;5096075;27;20040;-74
2024/01/04 04:51:44;;;;;;;14.05;6.00;;;;;;;8.50;100.00;99835.91;5094421;27;20775;-74
2024/01/04 04:54:10;;;;;;;16.92;6.93;;;;;;;8.63;100.00;99843.00;5093011;27;20031;-74
2024/01/04 04:56:35;;;;;;;20.33;7.03;;;;;;;8.59;100.00;99836.22;5082048;27;20351;-74
2024/01/04 04:59:04;;;;;;;14.90;5.70;;;;;;;8.61;100.00;99843.09;5077097;28;20036;-74
2024/01/04 05:01:29;;;;;;;17.20;6.70;;;;;;;8.54;100.00;99841.84;5091997;27;20036;-74
2024/01/04 05:03:55;;;;;;;14.90;6.65;;;;;;;8.57;100.00;99847.78;5097122;27;20032;-74
2024/01/04 05:06:20;;;;;;;20.27;6.82;;;;;;;8.61;100.00;99852.88;5093694;27;20063;-74
2024/01/04 05:08:45;;;;;;;18.27;6.88;;;;;;;8.46;100.00;99855.66;5091904;27;20032;-74
2024/01/04 05:11:11;;;;;;;21.48;6.97;;;;;;;8.53;100.00;99856.97;5095759;27;20040;-74
2024/01/04 05:13:36;;;;;;;16.60;6.85;;;;;;;8.43;100.00;99863.84;5095497;27;20040;-73
2024/01/04 05:16:02;;;;;;;13.50;6.43;;;;;;;8.61;100.00;99868.84;5091375;27;20035;-74
2024/01/04 05:18:28;;;;;;;10.55;4.85;;;;;;;8.54;100.00;99877.25;5090134;28;20028;-74
2024/01/04 05:20:53;;;;;;;12.52;5.68;;;;;;;8.60;100.00;99883.09;5092884;27;21020;-74
2024/01/04 05:23:19;;;;;;;15.32;5.45;;;;;;;8.59;100.00;99884.06;5100748;27;21009;-74
2024/01/04 05:25:45;;;;;;;17.23;5.32;;;;;;;8.47;100.00;99886.59;5099706;27;20486;-74
2024/01/04 05:28:10;;;;;;;15.85;5.32;;;;;;;8.44;100.00;99893.94;5093915;27;20044;-73
2024/01/04 05:30:36;;;;;;;14.38;5.82;;;;;;;8.51;100.00;99898.72;5100156;27;20136;-74
2024/01/04 05:33:01;;;;;;;14.60;6.13;;;;;;;8.43;100.00;99898.38;5092871;27;20137;-74
2024/01/04 05:35:27;;;;;;;17.40;6.22;;;;;;;8.32;100.00;99906.22;5068893;28;20045;-74
2024/01/04 05:37:52;;;;;;;14.25;5.97;;;;;;;8.24;100.00;99900.59;5096237;27;20047;-74
2024/01/04 05:40:18;;;;;;;16.25;6.10;;;;;;;8.20;100.00;99909.72;5095340;27;20043;-74
2024/01/04 05:42:43;;;;;;;14.18;6.00;;;;;;;8.21;100.00;99911.44;5094287;27;20093;-74
2024/01/04 05:45:09;;;;;;;14.77;6.68;;;;;;;8.20;100.00;99907.91;5077345;27;21051;-74
2024/01/04 05:47:35;;;;;;;11.98;6.47;;;;;;;8.20;100.00;99920.34;5091133;27;20048;-74
2024/01/04 05:50:00;;;;;;;15.68;6.65;;;;;;;8.23;100.00;99926.31;5094043;27;20037;-74
2024/01/04 05:52:26;;;;;;;15.80;6.28;;;;;;;8.28;100.00;99926.84;5102715;27;20032;-74
2024/01/04 05:54:52;;;;;;;18.55;6.82;;;;;;;8.29;100.00;99933.84;5099970;27;21001;-74
2024/01/04 05:57:18;;;;;;;16.05;6.28;;;;;;;8.27;100.00;99930.44;5103400;27;20032;-74
2024/01/04 05:59:43;;;;;;;12.48;6.47;;;;;;;8.35;100.00;99945.00;5105143;27;20824;-74
2024/01/04 06:02:15;;;;;;;13.60;5.90;;;;;;;8.35;100.00;99942.34;5087043;28;20074;-74
2024/01/04 06:04:40;;;;;;;14.63;7.05;;;;;;;8.30;100.00;99959.44;5099613;27;20032;-74
2024/01/04 06:07:06;;;;;;;15.95;6.38;;;;;;;8.32;100.00;99954.88;5097899;27;20040;-74
2024/01/04 06:09:32;;;;;;;22.33;6.60;;;;;;;8.41;100.00;99952.59;5110698;27;20047;-74
2024/01/04 06:11:57;;;;;;;14.75;6.32;;;;;;;8.44;100.00;99960.34;5106096;27;20077;-74
2024/01/04 06:14:23;;;;;;;18.30;6.82;;;;;;;8.50;100.00;99965.25;5098624;27;20138;-74
2024/01/04 06:16:49;;;;;;;19.80;6.60;;;;;;;8.42;100.00;99968.41;5103568;27;20401;-74
2024/01/04 06:19:14;;;;;;;16.73;6.22;;;;;;;8.36;100.00;99982.13;5109276;27;20067;-74
2024/01/04 06:21:40;;;;;;;17.23;6.50;;;;;;;8.41;100.00;99968.53;5106220;27;20155;-74
2024/01/04 06:24:05;;;;;;;11.40;5.60;;;;;;;8.39;100.00;99975.75;5095406;27;20102;-74
2024/01/04 06:26:31;;;;;;;13.50;5.93;;;;;;;8.44;100.00;99977.16;5082752;27;20028;-74
2024/01/04 06:28:56;;;;;;;12.00;5.65;;;;;;;8.43;100.00;99979.88;5108671;27;20047;-74
2024/01/04 06:31:22;;;;;;;17.70;6.47;;;;;;;8.39;100.00;99991.69;5102085;27;20032;-74
2024/01/04 06:33:47;;;;;;;16.67;5.68;;;;;;;8.37;100.00;99997.09;5102823;27;20085;-74
2024/01/04 06:36:13;;;;;;;17.23;6.53;;;;;;;8.43;100.00;100006.44;5101425;28;20523;-74
2024/01/04 06:38:38;;;;;;;14.32;6.00;;;;;;;8.39;100.00;100005.00;5096107;27;20064;-75
2024/01/04 06:41:04;;;;;;;20.23;7.75;;;;;;;8.42;100.00;100008.25;5100273;27;20757;-74
2024/01/04 06:43:30;;;;;;;15.60;6.60;;;;;;;8.36;100.00;100011.34;5104079;27;20031;-75
2024/01/04 06:45:59;;;;;;;13.68;6.55;;;;;;;8.36;100.00;100013.13;5102167;27;20038;-74
2024/01/04 06:48:25;;;;;;;12.73;6.00;;;;;;;8.43;100.00;100015.28;5100912;27;20229;-75
2024/01/04 06:50:51;;;;;;;18.30;6.38;;;;;;;8.39;100.00;100012.97;5104336;27;20866;-74
2024/01/04 06:53:16;;;;;;;14.00;5.70;;;;;;;8.35;100.00;100014.94;5102568;27;20040;-75
2024/01/04 06:55:45;;;;;;;16.65;6.20;;;;;;;8.40;100.00;100023.47;5102728;28;20128;-74
2024/01/04 06:58:11;;;;;;;15.70;6.05;;;;;;;8.40;100.00;100030.59;5089587;28;20032;-74
2024/01/04 07:00:36;;;;;;;18.25;6.90;;;;;;;8.42;100.00;100029.50;5109981;27;20036;-74
2024/01/04 07:03:03;;;;;;;15.88;6.65;;;;;;;8.41;100.00;100038.44;5102487;28;20478;-75
2024/01/04 07:05:29;;;;;;;11.77;6.03;;;;;;;8.34;100.00;100026.50;5119582;27;20035;-74
2024/01/04 07:07:54;;;;;;;14.82;5.80;;;;;;;8.35;100.00;100032.66;5094971;28;20048;-74
2024/01/04 07:10:20;;;;;;;17.42;6.05;;;;;;;8.36;100.00;100050.31;5116087;27;20032;-73
2024/01/04 07:12:46;;;;;;;15.07;6.22;;;;;;;8.32;100.00;100044.34;5102158;28;20040;-74
2024/01/04 07:15:12;;;;;;;18.35;6.70;;;;;;;8.38;100.00;100056.38;5105214;27;20028;-74
2024/01/04 07:17:38;;;;;;;14.90;6.22;;;;;;;8.43;100.00;100048.97;5128370;27;20032;-74
2024/01/04 07:20:05;;;;;;;16.33;6.78;;;;;;;8.40;100.00;100050.03;5115768;28;20032;-74
2024/01/04 07:22:30;;;;;;;14.75;6.20;;;;;;;8.39;100.00;100055.47;5111713;28;20082;-74
2024/01/04 07:24:56;;;;;;;20.05;7.43;;;;;;;8.33;100.00;100061.97;5119230;27;20036;-74
2024/01/04 07:27:22;;;;;;;18.73;7.47;;;;;;;8.31;100.00;100078.03;5130230;27;20853;-75
2024/01/04 07:29:48;;;;;;;21.50;7.53;;;;;;;8.28;100.00;100082.69;5123176;27;20032;-74
2024/01/04 07:32:18;;;;;;;18.42;8.52;;;;;;;8.26;100.00;100082.78;5126229;27;20312;-74
2024/01/04 07:34:44;;;;;;;21.27;8.50;;;;;;;8.27;100.00;100099.56;5134833;27;20095;-74
2024/01/04 07:37:11;;;;;;;15.73;7.25;;;;;;;8.27;100.00;100100.41;5079259;28;1071037;-74
2024/01/04 07:39:37;;;;;;;14.05;6.93;;;;;;;8.33;100.00;100104.47;5097409;27;20032;-74
2024/01/04 07:42:03;;;;;;;19.80;8.00;;;;;;;8.25;100.00;100107.66;5125307;27;20035;-74
2024/01/04 07:44:28;;;;;;;15.65;7.35;;;;;;;8.36;100.00;100114.94;5136436;27;20110;-74
2024/01/04 07:46:54;;;;;;;18.50;7.00;;;;;;;8.30;100.00;100117.97;5102964;27;20155;-74
2024/01/04 07:49:20;;;;;;;15.30;6.93;;;;;;;8.31;100.00;100122.31;5118810;27;20031;-74
2024/01/04 07:51:45;;;;;;;13.63;8.07;;;;;;;8.29;100.00;100126.91;5113694;27;20572;-74
2024/01/04 07:54:11;;;;;;;21.00;7.88;;;;;;;8.35;100.00;100122.97;5106225;27;20586;-74
2024/01/04 07:56:38;;;;;;;20.40;7.95;;;;;;;8.30;100.00;100128.59;5100088;28;20583;-74
2024/01/04 07:59:03;;;;;;;15.85;7.32;;;;;;;8.22;100.00;100130.88;5096015;27;20039;-74
2024/01/04 08:01:29;;;;;;;14.18;6.95;;;;;;;8.20;100.00;100140.78;5104901;27;20775;-74
2024/01/04 08:03:54;;;;;;;14.77;7.05;;;;;;;8.27;100.00;100142.06;5111876;27;20031;-74
2024/01/04 08:06:20;;;;;;;16.98;7.28;;;;;;;8.25;100.00;100142.19;5097446;27;20447;-75
2024/01/04 08:08:46;;;;;;;17.88;7.82;;;;;;;8.29;100.00;100137.53;5100012;27;20836;-74
2024/01/04 08:11:11;;;;;;;15.18;6.35;;;;;;;8.26;100.00;100135.91;5107682;27;20640;-74
2024/01/04 08:13:37;;;;;;;20.75;7.18;;;;;;;8.37;100.00;100137.03;5096682;28;20068;-74
2024/01/04 08:16:02;;;;;;;14.85;7.47;;;;;;;8.33;100.00;100141.66;5096159;27;20064;-74
2024/01/04 08:18:28;;;;;;;14.82;7.10;;;;;;;8.34;100.00;100148.69;5078328;28;20166;-74
2024/01/04 08:20:53;;;;;;;15.05;6.75;;;;;;;8.26;100.00;100145.69;5076718;28;20478;-74
2024/01/04 08:23:19;;;;;;;15.35;7.57;;;;;;;8.33;100.00;100149.63;5099652;27;20042;-74
2024/01/04 08:25:45;;;;;;;17.67;7.03;;;;;;;8.18;100.00;100140.88;5102302;27;20040;-74
2024/01/04 08:28:12;;;;;;;15.15;6.97;;;;;;;8.23;100.00;100137.91;5103730;27;20083;-74
2024/01/04 08:30:37;;;;;;;18.63;6.60;;;;;;;8.25;100.00;100146.63;5084525;27;20070;-74
2024/01/04 08:33:03;;;;;;;15.10;6.65;;;;;;;8.21;100.00;100151.28;5095811;27;20039;-74
2024/01/04 08:35:29;;;;;;;13.63;6.65;;;;;;;8.20;100.00;100151.41;5095876;27;20036;-75
2024/01/04 08:37:54;;;;;;;17.33;8.40;;;;;;;8.27;100.00;100153.53;5080786;27;20047;-74
2024/01/04 08:40:20;;;;;;;14.35;7.93;;;;;;;8.33;100.00;100165.56;5091255;27;20055;-74
2024/01/04 08:42:46;;;;;;;13.90;7.22;;;;;;;8.43;100.00;100164.03;5099608;27;20032;-73
2024/01/04 08:45:12;;;;;;;17.30;8.07;;;;;;;8.50;100.00;100167.19;5106478;27;20059;-74
2024/01/04 08:47:38;;;;;;;16.13;7.45;;;;;;;8.59;100.00;100163.06;5088060;27;20144;-74
2024/01/04 08:50:04;;;;;;;15.68;7.40;;;;;;;8.64;100.00;100160.97;5086445;27;20058;-73
2024/01/04 08:52:30;;;;;;;15.43;7.85;;;;;;;8.54;100.00;100158.06;5093554;27;20036;-73
2024/01/04 08:54:56;;;;;;;16.45;8.18;;;;;;;8.52;100.00;100163.44;5091458;27;20035;-74
2024/01/04 08:57:22;;;;;;;15.75;8.35;;;;;;;8.44;100.00;100155.16;5090212;27;20537;-73
2024/01/04 08:59:47;;;;;;;14.68;8.02;;;;;;;8.46;100.00;100158.53;5095885;27;20089;-74
2024/01/04 09:02:13;;;;;;;14.80;7.78;;;;;;;8.41;100.00;100162.47;5090921;27;20032;-73
2024/01/04 09:04:39;;;;;;;19.55;7.75;;;;;;;8.50;100.00;100169.84;5082484;27;20047;-72
2024/01/04 09:07:05;;;;;;;16.55;8.30;;;;;;;8.42;100.00;100174.78;5091036;27;20050;-72
2024/01/04 09:09:30;;;;;;;19.60;9.35;;;;;;;8.30;100.00;100182.56;5070585;28;20060;-73
2024/01/04 09:11:56;;;;;;;16.83;9.70;;;;;;;8.43;100.00;100190.63;5105250;27;20063;-75
2024/01/04 09:14:21;;;;;;;16.23;8.60;;;;;;;8.52;100.00;100190.03;5092790;27;20032;-73
2024/01/04 09:16:48;;;;;;;18.05;9.52;;;;;;;8.50;100.00;100199.91;5089450;27;20617;-74
2024/01/04 09:19:19;;;;;;;23.20;10.07;;;;;;;8.60;100.00;100196.66;5070704;28;20409;-75
2024/01/04 09:21:47;;;;;;;19.50;9.35;;;;;;;8.68;100.00;100197.84;5090476;27;20039;-75
2024/01/04 09:24:13;;;;;;;25.00;10.35;;;;;;;8.65;100.00;100202.53;5089210;27;20081;-74
2024/01/04 09:26:40;;;;;;;16.77;9.45;;;;;;;8.54;100.00;100205.88;5088530;27;20151;-75
2024/01/04 09:29:06;;;;;;;19.70;8.93;;;;;;;8.51;100.00;100224.66;5082873;27;20068;-75
2024/01/04 09:31:32;;;;;;;16.27;8.85;;;;;;;8.46;100.00;100229.44;5090265;27;20020;-74
2024/01/04 09:33:57;;;;;;;21.85;9.95;;;;;;;8.42;100.00;100230.56;5093606;27;20043;-74
2024/01/04 09:36:23;;;;;;;20.20;9.82;;;;;;;8.45;100.00;100225.06;5093553;27;20032;-74
2024/01/04 09:38:51;;;;;;;18.00;8.73;;;;;;;8.44;100.00;100226.88;5091496;27;20040;-75
2024/01/04 09:41:26;;;;;;;21.13;10.27;;;;;;;8.52;100.00;100229.88;5091698;27;20036;-75
2024/01/04 09:43:56;;;;;;;15.45;8.10;;;;;;;8.62;100.00;100238.09;5089907;27;21093;-74
2024/01/04 09:46:25;;;;;;;15.18;8.38;;;;;;;8.57;100.00;100246.38;5097154;27;20147;-74
2024/01/04 09:49:00;;;;;;;27.92;9.25;;;;;;;8.60;100.00;100236.53;5097841;27;20040;-75
2024/01/04 09:51:34;;;;;;;20.08;8.38;;;;;;;8.80;100.00;100246.69;5086373;27;20040;-74
2024/01/04 09:54:03;;;;;;;19.17;7.85;;;;;;;8.82;100.00;100242.13;5088351;27;20142;-74
2024/01/04 09:56:29;;;;;;;16.95;7.32;;;;;;;8.81;100.00;100240.44;5076131;27;20044;-74
2024/01/04 09:58:55;;;;;;;16.88;8.75;;;;;;;8.82;100.00;100242.97;5096183;27;20040;-74
2024/01/04 10:01:31;;;;;;;20.50;7.82;;;;;;;9.01;100.00;100253.25;5095562;27;20040;-74
2024/01/04 10:04:03;;;;;;;17.35;8.13;;;;;;;9.10;100.00;100250.94;5087847;27;20092;-73
2024/01/04 10:06:33;;;;;;;;;;;;;;;9.10;100.00;100251.78;5095110;27;20043;-74
2024/01/04 10:09:32;;;;;;;15.95;9.10;;;;;;;9.08;100.00;100254.53;5061336;27;19971;-74
2024/01/04 10:12:05;;;;;;;18.80;10.27;;;;;;;9.03;100.00;100258.47;5072903;27;20044;-74
2024/01/04 10:14:31;;;;;;;22.13;11.02;;;;;;;9.04;100.00;100255.72;5094815;27;20040;-74
2024/01/04 10:16:58;;;;;;;21.20;12.05;;;;;;;9.02;100.00;100268.25;5085071;27;20842;-74
2024/01/04 10:19:25;;;;;;;20.88;12.00;;;;;;;9.03;100.00;100259.31;5089012;27;21373;-73
2024/01/04 10:21:51;;;;;;;27.58;13.65;;;;;;;9.06;100.00;100259.13;5090107;27;20036;-73
2024/01/04 10:24:22;;;;;;;25.98;13.63;;;;;;;9.05;100.00;100270.72;5092605;27;20040;-73
2024/01/04 10:26:58;;;;;;;24.25;13.50;;;;;;;9.01;100.00;100273.69;5094641;27;20224;-73
2024/01/04 10:29:27;;;;;;;20.35;11.80;;;;;;;9.00;100.00;100271.97;5087397;28;20047;-73
2024/01/04 10:32:03;;;;;;;25.15;13.18;;;;;;;8.98;100.00;100277.38;5086140;27;20039;-73
2024/01/04 10:34:29;;;;;;;30.85;13.23;;;;;;;9.01;100.00;100271.03;5096105;27;20566;-73
2024/01/04 10:37:11;;;;;;;30.05;13.05;;;;;;;8.99;100.00;100275.59;5098226;27;20114;-73
2024/01/04 10:39:37;;;;;;;22.38;13.77;;;;;;;9.00;100.00;100279.97;5087183;28;20028;-73
2024/01/04 10:42:03;;;;;;;28.88;14.02;;;;;;;8.99;100.00;100280.91;5073159;28;20119;-73
2024/01/04 10:44:29;;;;;;;25.33;12.73;;;;;;;8.93;100.00;100283.94;5101702;27;20182;-72
2024/01/04 10:46:56;;;;;;;22.73;12.27;;;;;;;9.02;100.00;100268.25;5096575;27;20020;-73
2024/01/04 10:49:23;;;;;;;16.75;9.68;;;;;;;8.98;100.00;100268.56;5085941;27;20126;-73
2024/01/04 10:51:57;;;;;;;18.92;10.00;;;;;;;8.99;100.00;100270.28;5090152;27;20585;-74
2024/01/04 10:54:32;;;;;;;20.20;10.52;;;;;;;9.01;100.00;100277.19;5091038;27;20036;-72
2024/01/04 10:57:00;;;;;;;17.75;10.05;;;;;;;8.98;100.00;100285.34;5089243;27;20564;-73
2024/01/04 10:59:28;;;;;;;12.38;8.55;;;;;;;8.74;100.00;100282.50;5098140;27;20231;-74
2024/01/04 11:01:56;;;;;;;13.30;8.23;;;;;;;8.72;100.00;100297.69;5098342;27;20497;-72
2024/01/04 11:04:22;;;;;;;17.70;8.32;;;;;;;8.73;100.00;100294.06;5105392;27;20973;-73
2024/01/04 11:06:49;;;;;;;19.58;11.20;;;;;;;8.75;100.00;100296.66;5091142;27;20123;-72
2024/01/04 11:09:17;;;;;;;13.65;9.63;;;;;;;8.82;100.00;100300.63;5092768;27;20047;-74
2024/01/04 11:11:44;;;;;;;17.30;10.32;;;;;;;8.87;100.00;100301.16;5099036;27;20146;-73
2024/01/04 11:14:09;;;;;;;25.48;14.90;;;;;;;9.03;100.00;100304.53;5096720;27;20028;-73
2024/01/04 11:16:53;;;;;;;13.77;9.18;;;;;;;9.17;100.00;100292.13;5101190;27;20380;-72